Time;durP1;ratioP1;P1;durP2;ratioP2;P2;SDS_P1;SDS_P2;PMS_P1;PMS_P2;Temp;Humidity;BMP_temperature;BMP_pressure;BME280_temperature;BME280_humidity;BME280_pressure;Samples;Min_cycle;Max_cycle;Signal;HPM_P1;HPM_P2
2023/09/02 00:02:17;;;;;;;10.95;5.60;;;13.50;99.90;;;;;;4999989;28;20102;-76
2023/09/02 00:04:43;;;;;;;11.13;5.90;;;13.50;99.90;;;;;;5000717;28;20023;-77
2023/09/02 00:07:09;;;;;;;12.57;5.63;;;13.50;99.90;;;;;;5001419;28;20034;-76
2023/09/02 00:09:34;;;;;;;9.95;5.72;;;13.40;99.90;;;;;;5001222;28;20023;-76
2023/09/02 00:12:00;;;;;;;11.25;5.88;;;13.40;99.90;;;;;;5001158;28;20031;-75
2023/09/02 00:14:25;;;;;;;8.77;5.95;;;13.40;99.90;;;;;;5002285;28;20026;-76
2023/09/02 00:16:51;;;;;;;8.15;5.72;;;13.30;99.90;;;;;;5000992;28;20057;-75
2023/09/02 00:19:16;;;;;;;9.85;6.07;;;13.30;99.90;;;;;;5001650;28;20039;-77
2023/09/02 00:21:42;;;;;;;10.77;5.90;;;13.30;99.90;;;;;;5001105;28;20095;-76
2023/09/02 00:24:08;;;;;;;13.27;6.13;;;13.20;99.90;;;;;;5000641;28;20042;-76
2023/09/02 00:26:34;;;;;;;8.20;5.80;;;13.20;99.90;;;;;;5001288;28;20085;-76
2023/09/02 00:29:00;;;;;;;9.25;6.13;;;13.20;99.90;;;;;;5000836;28;20030;-77
2023/09/02 00:31:27;;;;;;;9.00;6.00;;;13.20;99.90;;;;;;5000423;28;20457;-76
2023/09/02 00:33:52;;;;;;;11.23;6.38;;;13.10;99.90;;;;;;5001416;28;20054;-77
2023/09/02 00:36:19;;;;;;;12.20;6.68;;;13.10;99.90;;;;;;5000705;28;20126;-76
2023/09/02 00:38:44;;;;;;;10.70;6.43;;;13.10;99.90;;;;;;5000304;28;20041;-76
2023/09/02 00:41:14;;;;;;;11.05;6.35;;;13.10;99.90;;;;;;5000371;28;20018;-75
2023/09/02 00:43:40;;;;;;;11.18;6.35;;;13.00;99.90;;;;;;5000801;28;20057;-76
2023/09/02 00:46:09;;;;;;;13.23;6.40;;;12.90;99.90;;;;;;5000126;28;20034;-77
2023/09/02 00:48:35;;;;;;;9.43;6.40;;;13.00;99.90;;;;;;5001367;28;20080;-76
2023/09/02 00:51:01;;;;;;;12.00;6.18;;;13.00;99.90;;;;;;5000166;28;20632;-76
2023/09/02 00:53:27;;;;;;;10.40;5.97;;;13.00;99.90;;;;;;4999906;28;20041;-76
2023/09/02 00:55:53;;;;;;;9.45;5.95;;;13.00;99.90;;;;;;4999183;28;20102;-77
2023/09/02 00:58:19;;;;;;;11.93;6.80;;;12.90;99.90;;;;;;5000431;28;20042;-76
2023/09/02 01:00:47;;;;;;;11.15;6.22;;;12.90;99.90;;;;;;5001195;28;20028;-76
2023/09/02 01:03:14;;;;;;;11.68;6.35;;;12.90;99.90;;;;;;5000174;28;20018;-76
2023/09/02 01:05:40;;;;;;;10.90;6.55;;;12.90;99.90;;;;;;5000819;28;20048;-77
2023/09/02 01:08:06;;;;;;;11.25;6.55;;;12.80;99.90;;;;;;4998667;28;20030;-75
2023/09/02 01:10:34;;;;;;;12.90;6.80;;;12.80;99.90;;;;;;4999419;28;20031;-75
2023/09/02 01:13:02;;;;;;;12.82;6.07;;;12.80;99.90;;;;;;5000454;28;20077;-76
2023/09/02 01:15:27;;;;;;;11.80;6.32;;;12.80;99.90;;;;;;4999932;28;20030;-76
2023/09/02 01:17:53;;;;;;;10.63;6.18;;;12.80;99.90;;;;;;5000193;28;20035;-77
2023/09/02 01:20:22;;;;;;;12.50;6.85;;;12.80;99.90;;;;;;4999472;28;20043;-78
2023/09/02 01:23:26;;;;;;;10.27;6.70;;;12.70;99.90;;;;;;5001324;28;20102;-76
2023/09/02 01:26:19;;;;;;;14.15;6.57;;;12.70;99.90;;;;;;4997548;28;20089;-75
2023/09/02 01:28:46;;;;;;;13.23;7.18;;;12.70;99.90;;;;;;4982893;28;20527;-76
2023/09/02 01:31:16;;;;;;;14.18;7.50;;;12.70;99.90;;;;;;5009053;28;20058;-76
2023/09/02 01:33:42;;;;;;;13.18;7.65;;;12.60;99.90;;;;;;5001526;28;20034;-76
2023/09/02 01:36:12;;;;;;;11.85;7.72;;;12.60;99.90;;;;;;5003308;28;20019;-77
2023/09/02 01:38:39;;;;;;;13.70;7.45;;;12.60;99.90;;;;;;5004061;28;20089;-76
2023/09/02 01:41:05;;;;;;;17.85;8.93;;;12.60;99.90;;;;;;5004162;28;20052;-76
2023/09/02 01:43:34;;;;;;;13.82;8.73;;;12.60;99.90;;;;;;5003109;28;20053;-75
2023/09/02 01:46:00;;;;;;;16.90;8.88;;;12.60;99.90;;;;;;5003313;28;20030;-76
2023/09/02 01:48:26;;;;;;;16.10;8.57;;;12.60;99.90;;;;;;5004449;28;20481;-77
2023/09/02 01:50:52;;;;;;;15.45;8.85;;;12.60;99.90;;;;;;5002553;28;20086;-76
2023/09/02 01:53:18;;;;;;;14.68;9.02;;;12.60;99.90;;;;;;5002756;28;20411;-78
2023/09/02 01:55:46;;;;;;;17.35;8.70;;;12.60;99.90;;;;;;5003479;28;20034;-77
2023/09/02 01:58:12;;;;;;;16.00;9.25;;;12.50;99.90;;;;;;5002641;28;20073;-76
2023/09/02 02:00:40;;;;;;;14.70;9.73;;;12.50;99.90;;;;;;5002328;28;20057;-76
2023/09/02 02:03:21;;;;;;;16.88;9.63;;;12.50;99.90;;;;;;5002580;28;20107;-76
2023/09/02 02:05:53;;;;;;;15.55;9.15;;;12.50;99.90;;;;;;5002573;28;20030;-77
2023/09/02 02:08:35;;;;;;;16.15;8.50;;;12.50;99.90;;;;;;5003496;28;20070;-76
2023/09/02 02:11:03;;;;;;;14.98;8.10;;;12.50;99.90;;;;;;5004027;28;20034;-77
2023/09/02 02:13:29;;;;;;;15.30;8.90;;;12.50;99.90;;;;;;5001966;28;20046;-76
2023/09/02 02:15:54;;;;;;;14.27;8.05;;;12.50;99.90;;;;;;5000223;28;20026;-78
2023/09/02 02:18:20;;;;;;;16.10;8.85;;;12.40;99.90;;;;;;5003060;28;20117;-76
2023/09/02 02:20:58;;;;;;;14.05;8.70;;;12.40;99.90;;;;;;5001076;28;20097;-77
2023/09/02 02:23:24;;;;;;;15.05;8.80;;;12.40;99.90;;;;;;5002866;28;20034;-77
2023/09/02 02:25:50;;;;;;;13.88;8.57;;;12.40;99.90;;;;;;5002068;28;20119;-77
2023/09/02 02:28:15;;;;;;;13.30;8.40;;;12.30;99.90;;;;;;5002423;28;20057;-77
2023/09/02 02:30:41;;;;;;;14.50;8.73;;;12.30;99.90;;;;;;5001226;28;20054;-76
2023/09/02 02:33:06;;;;;;;17.30;8.73;;;12.40;99.90;;;;;;5001865;28;20053;-77
2023/09/02 02:35:32;;;;;;;26.52;10.43;;;12.30;99.90;;;;;;5002440;28;20594;-77
2023/09/02 02:37:59;;;;;;;14.68;8.85;;;12.30;99.90;;;;;;5000130;28;20026;-77
2023/09/02 02:40:25;;;;;;;16.88;9.40;;;12.30;99.90;;;;;;5003170;28;20037;-77
2023/09/02 02:42:51;;;;;;;17.08;9.52;;;12.20;99.90;;;;;;5001770;28;20105;-78
2023/09/02 02:45:17;;;;;;;16.73;9.35;;;12.30;99.90;;;;;;5002747;28;20064;-77
2023/09/02 02:47:42;;;;;;;15.82;9.05;;;12.10;99.90;;;;;;5001979;28;20042;-78
2023/09/02 02:50:08;;;;;;;14.73;9.15;;;12.20;99.90;;;;;;5002395;28;20026;-75
2023/09/02 02:52:34;;;;;;;15.45;8.98;;;12.20;99.90;;;;;;5002202;28;20035;-77
2023/09/02 02:54:59;;;;;;;15.55;9.20;;;12.10;99.90;;;;;;5001446;28;20041;-77
2023/09/02 02:57:25;;;;;;;16.67;9.52;;;12.10;99.90;;;;;;5003105;28;20391;-77
2023/09/02 02:59:51;;;;;;;16.08;9.85;;;12.10;99.90;;;;;;5001867;28;20037;-76
2023/09/02 03:02:17;;;;;;;15.93;8.65;;;12.20;99.90;;;;;;5002974;28;20022;-78
2023/09/02 03:04:47;;;;;;;15.40;9.30;;;12.10;99.90;;;;;;5002141;28;20042;-76
2023/09/02 03:07:16;;;;;;;15.85;8.60;;;12.20;99.90;;;;;;5003275;28;20038;-76
2023/09/02 03:09:41;;;;;;;18.63;9.13;;;12.10;99.90;;;;;;5001968;28;20030;-76
2023/09/02 03:12:07;;;;;;;15.80;9.73;;;12.10;99.90;;;;;;5001515;28;20034;-77
2023/09/02 03:14:34;;;;;;;16.73;9.60;;;12.10;99.90;;;;;;5002815;28;20054;-77
2023/09/02 03:16:59;;;;;;;16.65;9.60;;;12.10;99.90;;;;;;5002290;28;20078;-77
2023/09/02 03:19:26;;;;;;;14.15;9.60;;;12.10;99.90;;;;;;5001405;28;20069;-77
2023/09/02 03:21:51;;;;;;;15.50;9.52;;;12.00;99.90;;;;;;5001727;28;20029;-77
2023/09/02 03:24:17;;;;;;;19.30;9.02;;;12.00;99.90;;;;;;5002110;28;20065;-78
2023/09/02 03:26:43;;;;;;;14.65;8.85;;;12.00;99.90;;;;;;5002001;28;20062;-78
2023/09/02 03:29:08;;;;;;;14.40;9.07;;;12.00;99.90;;;;;;5000459;28;20140;-78
2023/09/02 03:31:34;;;;;;;17.38;9.60;;;11.90;99.90;;;;;;5001163;28;20402;-77
2023/09/02 03:33:59;;;;;;;16.27;9.25;;;11.90;99.90;;;;;;5002334;28;20104;-78
2023/09/02 03:36:25;;;;;;;16.85;9.57;;;11.90;99.90;;;;;;5000704;28;20495;-77
2023/09/02 03:38:51;;;;;;;18.83;10.32;;;11.90;99.90;;;;;;5000937;28;20015;-78
2023/09/02 03:41:20;;;;;;;17.67;9.48;;;11.90;99.90;;;;;;5002044;28;20033;-79
2023/09/02 03:43:46;;;;;;;21.77;10.25;;;11.90;99.90;;;;;;5002476;28;20045;-76
2023/09/02 03:46:13;;;;;;;21.58;10.45;;;11.90;99.90;;;;;;5003057;28;20023;-77
2023/09/02 03:48:39;;;;;;;18.05;9.80;;;11.90;99.90;;;;;;5000262;28;20045;-77
2023/09/02 03:51:11;;;;;;;14.68;9.30;;;11.90;99.90;;;;;;5001645;28;20125;-76
2023/09/02 03:53:37;;;;;;;16.88;10.20;;;11.90;99.90;;;;;;5001262;28;20804;-77
2023/09/02 03:56:03;;;;;;;17.27;10.25;;;11.90;99.90;;;;;;5000748;28;20038;-77
2023/09/02 03:58:29;;;;;;;17.52;10.13;;;11.80;99.90;;;;;;5000392;28;20069;-77
2023/09/02 04:00:56;;;;;;;19.35;10.02;;;11.80;99.90;;;;;;5001108;28;20034;-78
2023/09/02 04:03:22;;;;;;;16.95;9.52;;;11.80;99.90;;;;;;4999732;28;20033;-77
2023/09/02 04:05:48;;;;;;;17.15;9.52;;;11.80;99.90;;;;;;5002493;28;20019;-79
2023/09/02 04:08:20;;;;;;;18.67;10.02;;;11.70;99.90;;;;;;5001116;28;20042;-78
2023/09/02 04:10:51;;;;;;;17.25;10.18;;;11.80;99.90;;;;;;5000247;28;20030;-77
2023/09/02 04:13:17;;;;;;;18.85;9.50;;;11.80;99.90;;;;;;5000583;28;20090;-78
2023/09/02 04:15:42;;;;;;;18.35;9.98;;;11.80;99.90;;;;;;5000149;28;20062;-76
2023/09/02 04:18:08;;;;;;;19.95;10.25;;;11.80;99.90;;;;;;5001734;28;20022;-78
2023/09/02 04:20:37;;;;;;;18.23;10.02;;;11.70;99.90;;;;;;4999589;28;20119;-77
2023/09/02 04:23:02;;;;;;;18.65;9.65;;;11.80;99.90;;;;;;4999359;28;20038;-76
2023/09/02 04:25:28;;;;;;;17.50;9.70;;;11.70;99.90;;;;;;4998765;28;20521;-78
2023/09/02 04:27:54;;;;;;;18.67;10.18;;;11.50;99.90;;;;;;5000264;28;20042;-79
2023/09/02 04:30:19;;;;;;;17.10;9.70;;;11.60;99.90;;;;;;4999758;28;20113;-77
2023/09/02 04:32:49;;;;;;;19.40;10.00;;;11.60;99.90;;;;;;5001139;28;20038;-79
2023/09/02 04:35:14;;;;;;;17.60;9.68;;;11.60;99.90;;;;;;4999449;28;20057;-78
2023/09/02 04:37:40;;;;;;;23.08;10.82;;;11.50;99.90;;;;;;5001227;28;20034;-78
2023/09/02 04:40:07;;;;;;;21.70;11.00;;;11.50;99.90;;;;;;5000141;28;20134;-77
2023/09/02 04:42:32;;;;;;;19.10;10.10;;;11.50;99.90;;;;;;4999942;28;20034;-77
2023/09/02 04:44:58;;;;;;;20.13;10.60;;;11.60;99.90;;;;;;5001897;28;20025;-77
2023/09/02 04:47:23;;;;;;;20.70;9.88;;;11.50;99.90;;;;;;4998414;28;20069;-77
2023/09/02 04:49:50;;;;;;;18.80;9.73;;;11.60;99.90;;;;;;5001436;28;20062;-78
2023/09/02 04:52:15;;;;;;;17.13;9.52;;;11.60;99.90;;;;;;5000368;28;20025;-80
2023/09/02 04:54:45;;;;;;;20.10;10.25;;;11.60;99.90;;;;;;5002423;28;20026;-76
2023/09/02 04:57:11;;;;;;;22.27;10.13;;;11.60;99.90;;;;;;5015643;28;20035;-78
2023/09/02 04:59:38;;;;;;;23.20;10.32;;;11.60;99.90;;;;;;4999926;28;20034;-78
2023/09/02 05:02:05;;;;;;;18.85;10.43;;;11.50;99.90;;;;;;5001711;28;20022;-75
2023/09/02 05:04:31;;;;;;;17.92;9.55;;;11.60;99.90;;;;;;4999503;28;20031;-78
2023/09/02 05:06:56;;;;;;;19.80;9.98;;;11.50;99.90;;;;;;4998277;28;20057;-76
2023/09/02 05:09:22;;;;;;;19.88;10.45;;;11.50;99.90;;;;;;4998379;28;20039;-76
2023/09/02 05:11:48;;;;;;;19.33;10.77;;;11.50;99.90;;;;;;5001798;28;20140;-78
2023/09/02 05:14:14;;;;;;;18.15;9.82;;;11.60;99.90;;;;;;5005186;28;20058;-78
2023/09/02 05:16:40;;;;;;;20.75;10.98;;;11.60;99.90;;;;;;5004979;28;20049;-78
2023/09/02 05:19:07;;;;;;;22.20;11.68;;;11.60;99.90;;;;;;5003700;28;20678;-78
2023/09/02 05:21:32;;;;;;;19.08;10.40;;;11.70;99.90;;;;;;5004002;28;20026;-77
2023/09/02 05:23:58;;;;;;;24.85;11.02;;;11.60;99.90;;;;;;5003395;28;20026;-78
2023/09/02 05:26:23;;;;;;;23.27;10.90;;;11.70;99.90;;;;;;5002816;28;20491;-78
2023/09/02 05:28:49;;;;;;;21.02;11.18;;;11.70;99.90;;;;;;5000679;28;20135;-79
2023/09/02 05:31:15;;;;;;;21.77;11.13;;;11.70;99.90;;;;;;5003618;28;20022;-77
2023/09/02 05:33:40;;;;;;;21.25;11.20;;;11.80;99.90;;;;;;5002813;28;20049;-81
2023/09/02 05:36:06;;;;;;;21.10;11.02;;;11.80;99.90;;;;;;5003849;28;20746;-77
2023/09/02 05:38:31;;;;;;;20.77;10.75;;;11.80;99.90;;;;;;5000892;28;20090;-78
2023/09/02 05:40:57;;;;;;;24.83;12.63;;;11.90;99.90;;;;;;5004482;28;20026;-78
2023/09/02 05:43:24;;;;;;;24.45;12.93;;;12.00;99.90;;;;;;5005049;28;20057;-78
2023/09/02 05:45:50;;;;;;;21.67;11.35;;;12.00;99.90;;;;;;5003712;28;20023;-78
2023/09/02 05:48:16;;;;;;;21.85;10.88;;;12.10;99.90;;;;;;5003071;28;20038;-77
2023/09/02 05:50:42;;;;;;;19.58;10.13;;;12.20;99.90;;;;;;5003425;28;20032;-76
2023/09/02 05:53:08;;;;;;;22.02;10.13;;;12.20;99.90;;;;;;5002596;28;20488;-78
2023/09/02 05:55:34;;;;;;;17.67;9.25;;;12.20;99.90;;;;;;5002725;28;20029;-78
2023/09/02 05:58:00;;;;;;;19.70;9.45;;;12.20;99.90;;;;;;5002264;28;20030;-76
2023/09/02 06:00:25;;;;;;;17.80;10.95;;;12.30;99.90;;;;;;5004061;28;20041;-77
2023/09/02 06:02:51;;;;;;;21.35;10.50;;;12.30;99.90;;;;;;5002724;28;20165;-78
2023/09/02 06:05:17;;;;;;;24.02;12.70;;;12.30;99.90;;;;;;5002337;28;20382;-77
2023/09/02 06:07:45;;;;;;;22.75;11.27;;;12.40;99.90;;;;;;5002517;28;20054;-78
2023/09/02 06:10:11;;;;;;;19.73;10.93;;;12.40;99.90;;;;;;5002404;28;20037;-76
2023/09/02 06:12:37;;;;;;;18.67;10.95;;;12.50;99.90;;;;;;5002614;28;20034;-74
2023/09/02 06:15:03;;;;;;;21.23;11.20;;;12.60;99.90;;;;;;5003519;28;20109;-76
2023/09/02 06:17:31;;;;;;;33.85;13.48;;;12.70;99.90;;;;;;5004248;28;20033;-76
2023/09/02 06:19:59;;;;;;;28.10;13.50;;;12.80;99.90;;;;;;5003040;28;20018;-76
2023/09/02 06:22:25;;;;;;;29.45;13.50;;;12.90;99.90;;;;;;5001053;28;20033;-76
2023/09/02 06:24:54;;;;;;;30.85;13.65;;;12.90;99.90;;;;;;5004379;28;20030;-77
2023/09/02 06:27:20;;;;;;;22.33;11.68;;;13.00;99.90;;;;;;5010813;28;20049;-77
2023/09/02 06:29:45;;;;;;;34.78;12.57;;;13.10;99.90;;;;;;5002837;28;20093;-76
2023/09/02 06:32:11;;;;;;;30.35;11.63;;;13.20;99.90;;;;;;5001819;28;20100;-76
2023/09/02 06:34:37;;;;;;;29.45;12.80;;;13.20;99.90;;;;;;5002500;28;20050;-76
2023/09/02 06:37:03;;;;;;;30.83;12.60;;;13.30;99.90;;;;;;5003897;28;20030;-76
2023/09/02 06:39:28;;;;;;;33.90;12.80;;;13.40;99.90;;;;;;5001572;28;20026;-76
2023/09/02 06:41:54;;;;;;;26.98;14.43;;;13.50;99.90;;;;;;5002408;28;20038;-77
2023/09/02 06:44:20;;;;;;;23.45;13.15;;;13.50;99.90;;;;;;5001768;28;20033;-77
2023/09/02 06:46:47;;;;;;;21.23;11.57;;;13.60;99.90;;;;;;5001725;28;20026;-77
2023/09/02 06:49:13;;;;;;;23.60;11.95;;;13.70;99.90;;;;;;5000067;28;20117;-75
2023/09/02 06:51:38;;;;;;;20.50;10.63;;;13.80;99.90;;;;;;5002190;28;20090;-76
2023/09/02 06:54:04;;;;;;;20.65;10.88;;;13.90;99.90;;;;;;5002149;28;20049;-76
2023/09/02 06:56:29;;;;;;;21.13;9.85;;;14.00;99.90;;;;;;5002208;28;20109;-76
2023/09/02 06:58:55;;;;;;;17.65;9.88;;;14.10;99.90;;;;;;5001937;28;20026;-76
2023/09/02 07:01:26;;;;;;;22.38;11.60;;;14.10;99.90;;;;;;5001676;28;20022;-75
2023/09/02 07:03:53;;;;;;;20.40;10.02;;;14.20;99.90;;;;;;4999620;28;20033;-76
2023/09/02 07:06:19;;;;;;;23.20;10.68;;;14.30;99.90;;;;;;5001015;28;20037;-76
2023/09/02 07:08:45;;;;;;;24.67;10.38;;;14.40;99.90;;;;;;5002825;28;20031;-76
2023/09/02 07:11:13;;;;;;;19.30;10.30;;;14.40;99.90;;;;;;5001604;28;20033;-75
2023/09/02 07:13:39;;;;;;;21.02;10.48;;;14.50;99.90;;;;;;5002682;28;20028;-75
2023/09/02 07:16:06;;;;;;;23.98;10.00;;;14.60;99.90;;;;;;5000911;28;20022;-75
2023/09/02 07:18:33;;;;;;;18.25;10.18;;;14.70;99.90;;;;;;5001808;28;20045;-77
2023/09/02 07:20:59;;;;;;;20.83;11.18;;;14.80;99.90;;;;;;5002992;28;20038;-75
2023/09/02 07:23:25;;;;;;;21.42;11.57;;;14.90;99.90;;;;;;5001157;28;20054;-75
2023/09/02 07:25:51;;;;;;;24.80;12.63;;;15.00;99.90;;;;;;5000966;28;20438;-75
2023/09/02 07:28:17;;;;;;;24.17;12.95;;;15.00;99.90;;;;;;5001548;28;20078;-75
2023/09/02 07:30:42;;;;;;;33.05;14.38;;;15.10;99.90;;;;;;5000191;28;20033;-77
2023/09/02 07:33:08;;;;;;;27.63;14.60;;;15.20;99.90;;;;;;5001392;28;20122;-76
2023/09/02 07:35:36;;;;;;;38.00;13.25;;;15.30;99.90;;;;;;5001579;28;20058;-76
2023/09/02 07:38:03;;;;;;;27.55;13.00;;;15.40;99.90;;;;;;4997755;28;20033;-76
2023/09/02 07:40:31;;;;;;;21.05;11.75;;;15.50;99.90;;;;;;4994538;28;20022;-77
2023/09/02 07:43:02;;;;;;;23.08;11.75;;;15.60;99.90;;;;;;5012441;28;20037;-75
2023/09/02 07:45:28;;;;;;;21.77;12.02;;;15.60;99.90;;;;;;4995072;28;20106;-76
2023/09/02 07:47:54;;;;;;;23.48;12.40;;;15.60;99.90;;;;;;4999579;28;20043;-75
2023/09/02 07:50:19;;;;;;;19.50;11.20;;;15.60;99.90;;;;;;5001157;28;20039;-76
2023/09/02 07:52:45;;;;;;;25.58;12.48;;;15.60;99.90;;;;;;4999325;28;21111;-76
2023/09/02 07:55:11;;;;;;;24.00;13.15;;;15.60;99.90;;;;;;4999157;28;20030;-75
2023/09/02 07:57:39;;;;;;;17.45;10.85;;;15.60;99.90;;;;;;4997521;28;20065;-75
2023/09/02 08:00:06;;;;;;;17.77;10.25;;;15.60;99.90;;;;;;4996326;28;20048;-74
2023/09/02 08:02:32;;;;;;;22.40;11.93;;;15.70;99.90;;;;;;4998144;28;20061;-75
2023/09/02 08:04:58;;;;;;;17.92;10.65;;;15.80;99.90;;;;;;4999274;28;20026;-75
2023/09/02 08:07:25;;;;;;;18.85;10.48;;;15.80;99.90;;;;;;4999725;28;20108;-74
2023/09/02 08:09:52;;;;;;;15.27;9.27;;;15.90;99.90;;;;;;4999867;28;20045;-75
2023/09/02 08:12:17;;;;;;;13.95;7.95;;;15.90;99.90;;;;;;5002348;28;20031;-75
2023/09/02 08:14:43;;;;;;;12.50;6.88;;;15.90;99.90;;;;;;4999714;28;20023;-75
2023/09/02 08:17:09;;;;;;;14.27;8.23;;;16.00;99.90;;;;;;4996570;28;20102;-76
2023/09/02 08:19:34;;;;;;;12.57;7.30;;;16.20;99.90;;;;;;5006964;28;20036;-75
2023/09/02 08:22:00;;;;;;;9.65;6.03;;;16.30;99.90;;;;;;5001084;28;20069;-75
2023/09/02 08:24:25;;;;;;;12.30;5.72;;;16.50;99.90;;;;;;5000511;28;20065;-75
2023/09/02 08:26:51;;;;;;;8.43;3.85;;;16.70;99.90;;;;;;5001215;28;20065;-75
2023/09/02 08:29:17;;;;;;;7.30;3.92;;;16.80;99.90;;;;;;5002056;28;20038;-76
2023/09/02 08:31:42;;;;;;;5.70;3.47;;;16.90;99.90;;;;;;5001059;28;20070;-75
2023/09/02 08:34:08;;;;;;;6.10;3.72;;;17.00;99.90;;;;;;4999805;28;20062;-77
2023/09/02 08:36:34;;;;;;;5.60;2.85;;;17.00;99.90;;;;;;4999521;28;20065;-76
2023/09/02 08:38:59;;;;;;;7.32;2.63;;;17.00;99.90;;;;;;5000426;28;20018;-76
2023/09/02 08:41:34;;;;;;;8.48;2.60;;;17.10;99.90;;;;;;5001261;28;20027;-76
2023/09/02 08:44:04;;;;;;;6.30;3.00;;;17.10;99.90;;;;;;4999877;28;20162;-75
2023/09/02 08:46:31;;;;;;;4.95;2.70;;;17.20;99.90;;;;;;5006559;28;20033;-75
2023/09/02 08:48:58;;;;;;;4.18;1.90;;;17.30;99.90;;;;;;5005320;28;20050;-76
2023/09/02 08:51:25;;;;;;;3.50;2.15;;;17.40;99.90;;;;;;5004575;28;20046;-75
2023/09/02 08:53:53;;;;;;;3.15;2.15;;;17.60;99.90;;;;;;5003224;28;20037;-76
2023/09/02 08:56:21;;;;;;;7.70;2.33;;;17.70;99.90;;;;;;5011911;28;20037;-74
2023/09/02 08:58:48;;;;;;;3.65;2.22;;;17.80;99.90;;;;;;5001417;28;20054;-76
2023/09/02 09:01:17;;;;;;;5.97;3.25;;;17.90;99.90;;;;;;5009600;28;20034;-75
2023/09/02 09:03:47;;;;;;;7.70;3.35;;;18.00;99.90;;;;;;5003820;28;20636;-75
2023/09/02 09:06:13;;;;;;;6.82;2.95;;;18.00;99.90;;;;;;5004729;28;20058;-75
2023/09/02 09:08:41;;;;;;;9.95;3.60;;;18.00;99.90;;;;;;5002657;28;20045;-74
2023/09/02 09:11:07;;;;;;;7.88;3.20;;;18.10;99.90;;;;;;5003889;28;20031;-74
2023/09/02 09:13:35;;;;;;;8.57;3.05;;;18.20;99.90;;;;;;5003192;28;20057;-72
2023/09/02 09:16:01;;;;;;;7.38;3.63;;;18.40;99.90;;;;;;5004049;28;20093;-74
2023/09/02 09:18:27;;;;;;;7.82;3.30;;;18.50;99.90;;;;;;5003533;28;20041;-75
2023/09/02 09:20:55;;;;;;;9.55;3.97;;;18.60;99.90;;;;;;5003957;28;20034;-76
2023/09/02 09:23:21;;;;;;;5.60;3.25;;;18.70;99.90;;;;;;5008546;28;20040;-74
2023/09/02 09:25:51;;;;;;;8.45;3.60;;;18.80;99.90;;;;;;5003507;28;20098;-74
2023/09/02 09:28:17;;;;;;;6.32;2.83;;;18.80;99.90;;;;;;5005642;28;20451;-76
2023/09/02 09:30:43;;;;;;;8.00;3.47;;;18.90;99.90;;;;;;5005035;28;20483;-74
2023/09/02 09:33:08;;;;;;;8.98;4.03;;;19.00;99.90;;;;;;5004348;28;20031;-73
2023/09/02 09:35:35;;;;;;;8.52;3.55;;;19.10;99.90;;;;;;5002332;28;20047;-75
2023/09/02 09:38:01;;;;;;;9.73;3.58;;;19.10;99.90;;;;;;5001163;28;20023;-75
2023/09/02 09:40:35;;;;;;;9.57;3.85;;;19.20;99.90;;;;;;5003466;28;20035;-74
2023/09/02 09:43:02;;;;;;;9.73;4.57;;;19.20;99.90;;;;;;5003431;28;20038;-75
2023/09/02 09:45:29;;;;;;;10.65;4.43;;;19.30;99.90;;;;;;5002145;28;20042;-74
2023/09/02 09:47:59;;;;;;;8.40;4.05;;;19.40;99.90;;;;;;5019501;28;20034;-74
2023/09/02 09:50:28;;;;;;;7.38;4.15;;;19.40;99.90;;;;;;5002262;28;20117;-74
2023/09/02 09:53:09;;;;;;;10.93;4.13;;;19.50;99.90;;;;;;5003813;28;20025;-74
2023/09/02 09:55:35;;;;;;;6.70;3.40;;;19.60;99.90;;;;;;5001940;28;20034;-75
2023/09/02 09:58:02;;;;;;;6.75;4.15;;;19.70;99.90;;;;;;5000856;28;20034;-74
2023/09/02 10:00:29;;;;;;;7.82;4.53;;;19.80;99.90;;;;;;5001011;28;20027;-74
2023/09/02 10:02:56;;;;;;;8.15;4.03;;;19.90;99.90;;;;;;5001394;28;20038;-75
2023/09/02 10:05:26;;;;;;;6.72;4.00;;;20.00;99.90;;;;;;5004171;28;20026;-75
2023/09/02 10:08:03;;;;;;;5.95;3.25;;;20.10;99.90;;;;;;5003456;28;20046;-76
2023/09/02 10:10:34;;;;;;;19.83;7.40;;;20.30;99.90;;;;;;5004812;28;20435;-74
2023/09/02 10:13:00;;;;;;;13.85;4.90;;;20.40;99.90;;;;;;5009535;28;20546;-74
2023/09/02 10:15:27;;;;;;;8.05;4.07;;;20.50;99.90;;;;;;5003482;28;20372;-75
2023/09/02 10:18:00;;;;;;;9.73;4.50;;;20.60;99.90;;;;;;5001835;28;20061;-75
2023/09/02 10:20:28;;;;;;;10.38;4.10;;;20.70;99.90;;;;;;5000000;28;20061;-75
2023/09/02 10:22:57;;;;;;;7.00;4.05;;;20.80;99.90;;;;;;5001662;28;20040;-74
2023/09/02 10:25:29;;;;;;;7.82;4.07;;;20.90;99.90;;;;;;5002975;28;20026;-72
2023/09/02 10:28:04;;;;;;;12.40;4.55;;;21.00;99.90;;;;;;5003767;28;20700;-74
2023/09/02 10:30:43;;;;;;;9.10;4.85;;;21.00;99.90;;;;;;5002563;28;20054;-74
2023/09/02 10:33:27;;;;;;;7.93;4.57;;;21.00;99.90;;;;;;5002917;28;20384;-74
2023/09/02 10:36:00;;;;;;;6.50;4.10;;;21.10;99.90;;;;;;5003031;28;20050;-73
2023/09/02 10:38:41;;;;;;;8.60;4.40;;;21.10;99.90;;;;;;5003839;28;20118;-73
2023/09/02 10:41:13;;;;;;;7.18;4.15;;;21.20;99.90;;;;;;5003909;28;20086;-74
2023/09/02 10:43:40;;;;;;;13.63;5.78;;;21.20;99.90;;;;;;5003087;28;20089;-71
2023/09/02 10:46:08;;;;;;;10.93;4.90;;;21.30;99.90;;;;;;5002437;28;20030;-72
2023/09/02 10:48:38;;;;;;;11.50;4.90;;;21.30;99.90;;;;;;5003144;28;20039;-71
2023/09/02 10:51:05;;;;;;;8.57;4.50;;;21.40;99.90;;;;;;5002331;28;20118;-75
2023/09/02 10:53:54;;;;;;;7.97;4.60;;;21.40;99.90;;;;;;5001896;28;20030;-73
2023/09/02 10:56:32;;;;;;;7.80;4.28;;;21.50;99.90;;;;;;4999353;28;20050;-74
2023/09/02 10:59:03;;;;;;;8.73;4.55;;;21.50;99.90;;;;;;5002203;28;20470;-75
2023/09/02 11:01:49;;;;;;;8.93;4.13;;;21.60;99.90;;;;;;5003047;28;20027;-74
2023/09/02 11:04:40;;;;;;;11.75;4.40;;;21.70;99.90;;;;;;5002620;28;20440;-76
2023/09/02 11:07:24;;;;;;;8.80;3.50;;;21.70;99.90;;;;;;5001979;28;21291;-74
2023/09/02 11:09:53;;;;;;;10.32;3.92;;;21.80;99.90;;;;;;5002797;28;20034;-74
2023/09/02 11:12:20;;;;;;;10.65;3.83;;;22.00;99.90;;;;;;5003271;28;20061;-74
2023/09/02 11:15:07;;;;;;;6.18;3.97;;;22.10;99.90;;;;;;5000863;28;20030;-74
2023/09/02 11:17:34;;;;;;;6.15;3.95;;;22.10;99.90;;;;;;5002839;28;20031;-75
2023/09/02 11:20:03;;;;;;;6.68;3.35;;;22.20;99.90;;;;;;5001437;28;20027;-75
2023/09/02 11:22:47;;;;;;;7.32;3.75;;;22.30;99.90;;;;;;5002007;28;20038;-74
2023/09/02 11:25:39;;;;;;;7.43;3.53;;;22.40;99.90;;;;;;5001766;28;20038;-74
2023/09/02 11:28:24;;;;;;;9.95;3.47;;;22.60;99.90;;;;;;5001474;28;20046;-73
2023/09/02 11:31:13;;;;;;;7.03;3.25;;;22.80;99.90;;;;;;5002617;28;20090;-73
2023/09/02 11:33:40;;;;;;;8.63;3.60;;;22.70;99.90;;;;;;5002777;28;20384;-75
2023/09/02 11:36:12;;;;;;;9.93;3.67;;;22.60;99.90;;;;;;5001985;28;20045;-76
2023/09/02 11:38:38;;;;;;;6.53;3.40;;;22.60;99.90;;;;;;5002225;28;20049;-76
2023/09/02 11:41:03;;;;;;;6.63;3.42;;;22.80;99.90;;;;;;5001557;28;20035;-75
2023/09/02 11:43:32;;;;;;;6.95;3.17;;;22.90;99.90;;;;;;5002140;28;20023;-74
2023/09/02 11:45:59;;;;;;;6.95;3.47;;;23.00;99.90;;;;;;4999729;28;20098;-74
2023/09/02 11:48:26;;;;;;;6.93;3.40;;;23.20;99.90;;;;;;4998274;28;20039;-75
2023/09/02 11:50:52;;;;;;;5.97;3.15;;;23.30;99.90;;;;;;4999879;28;20097;-74
2023/09/02 11:53:18;;;;;;;5.20;3.50;;;23.30;99.90;;;;;;5002224;28;20125;-73
2023/09/02 11:55:44;;;;;;;7.20;4.00;;;23.40;99.90;;;;;;5002104;28;20688;-74
2023/09/02 11:58:14;;;;;;;8.30;3.60;;;23.40;99.90;;;;;;4999926;28;20042;-74
2023/09/02 12:00:43;;;;;;;6.75;3.53;;;23.30;99.90;;;;;;5001358;28;20036;-74
2023/09/02 12:03:08;;;;;;;7.60;3.40;;;23.30;99.90;;;;;;4999639;28;20049;-72
2023/09/02 12:05:46;;;;;;;4.50;2.88;;;23.40;99.90;;;;;;5000098;28;20144;-74
2023/09/02 12:08:13;;;;;;;7.13;3.08;;;23.60;99.90;;;;;;5017102;28;20042;-74
2023/09/02 12:10:38;;;;;;;7.75;3.50;;;23.90;99.90;;;;;;4997384;28;20041;-72
2023/09/02 12:13:05;;;;;;;8.77;3.20;;;24.10;99.90;;;;;;5000688;28;20035;-75
2023/09/02 12:15:32;;;;;;;9.57;3.75;;;24.00;99.90;;;;;;5002084;28;21337;-74
2023/09/02 12:17:58;;;;;;;6.30;2.88;;;23.90;99.90;;;;;;5000679;28;20460;-75
2023/09/02 12:20:24;;;;;;;8.73;3.63;;;23.80;99.90;;;;;;5000631;28;20084;-75
2023/09/02 12:22:50;;;;;;;5.93;3.42;;;23.80;99.90;;;;;;4998768;28;20049;-74
2023/09/02 12:25:23;;;;;;;8.18;3.10;;;23.60;99.90;;;;;;4998270;28;20030;-75
2023/09/02 12:27:50;;;;;;;5.10;3.28;;;23.30;99.90;;;;;;5000942;28;20031;-74
2023/09/02 12:30:30;;;;;;;7.05;3.30;;;23.00;99.90;;;;;;5000085;28;20038;-75
2023/09/02 12:32:57;;;;;;;9.93;3.00;;;22.60;99.90;;;;;;4999353;28;20022;-74
2023/09/02 12:35:23;;;;;;;8.07;3.15;;;22.40;99.90;;;;;;5000245;28;20046;-75
2023/09/02 12:38:06;;;;;;;7.82;3.30;;;22.20;99.90;;;;;;5001934;28;20096;-73
2023/09/02 12:40:33;;;;;;;5.43;2.90;;;22.00;99.90;;;;;;5000305;28;20108;-73
2023/09/02 12:42:59;;;;;;;7.78;3.33;;;22.00;99.90;;;;;;5000993;28;20022;-73